createdAt,value
2023-03-04T00:00:37.039Z,25.70
2023-03-04T00:03:20.011Z,23.88
2023-03-04T00:06:02.874Z,26.35
2023-03-04T00:08:45.679Z,29.38
2023-03-04T00:11:28.498Z,27.73
2023-03-04T00:14:12.761Z,25.60
2023-03-04T00:16:55.546Z,25.90
2023-03-04T00:19:38.374Z,28.33
2023-03-04T00:22:21.166Z,25.45
2023-03-04T00:25:04.046Z,25.67
2023-03-04T00:27:47.223Z,26.33
2023-03-04T00:30:31.457Z,25.38
2023-03-04T00:33:14.408Z,27.77
2023-03-04T00:35:57.331Z,24.80
2023-03-04T00:38:40.200Z,23.08
2023-03-04T00:44:07.521Z,18.08
2023-03-04T00:46:51.680Z,18.20
2023-03-04T00:49:34.786Z,23.98
2023-03-04T00:52:17.738Z,24.23
2023-03-04T00:55:00.573Z,23.60
2023-03-04T00:57:43.385Z,30.38
2023-03-04T01:00:26.333Z,25.83
2023-03-04T01:03:10.530Z,26.45
2023-03-04T01:05:53.505Z,24.25
2023-03-04T01:08:36.406Z,28.30
2023-03-04T01:11:19.228Z,26.35
2023-03-04T01:14:03.333Z,24.05
2023-03-04T01:16:46.334Z,25.30
2023-03-04T01:19:30.536Z,22.27
2023-03-04T01:22:16.676Z,23.48
2023-03-04T01:24:59.563Z,27.60
2023-03-04T01:27:42.436Z,28.98
2023-03-04T01:30:25.233Z,25.73
2023-03-04T01:33:08.265Z,26.13
2023-03-04T01:35:53.434Z,27.52
2023-03-04T01:38:36.320Z,26.35
2023-03-04T01:41:23.706Z,26.55
2023-03-04T01:44:07.160Z,23.27
2023-03-04T01:46:52.517Z,26.75
2023-03-04T01:49:35.371Z,26.80
2023-03-04T01:52:19.524Z,31.73
2023-03-04T01:55:02.483Z,29.60
2023-03-04T01:57:46.584Z,28.73
2023-03-04T02:00:32.068Z,25.58
2023-03-04T02:03:19.739Z,26.17
2023-03-04T02:06:02.624Z,25.40
2023-03-04T02:08:46.817Z,25.63
2023-03-04T02:11:29.764Z,23.48
2023-03-04T02:14:13.681Z,26.70
2023-03-04T02:16:56.701Z,23.75
2023-03-04T02:19:50.353Z,20.60
2023-03-04T02:22:37.677Z,23.20
2023-03-04T02:25:27.681Z,23.52
2023-03-04T02:28:11.958Z,24.13
2023-03-04T02:30:54.881Z,26.92
2023-03-04T02:33:37.772Z,26.90
2023-03-04T02:36:20.749Z,23.30
2023-03-04T02:39:08.903Z,23.35
2023-03-04T02:41:54.253Z,25.17
2023-03-04T02:44:41.783Z,26.42
2023-03-04T02:47:24.696Z,23.00
2023-03-04T02:50:08.349Z,25.23
2023-03-04T02:52:51.146Z,22.23
2023-03-04T02:55:35.462Z,21.38
2023-03-04T02:58:18.725Z,23.25
2023-03-04T03:01:04.050Z,24.65
2023-03-04T03:03:46.873Z,26.23
2023-03-04T03:06:29.802Z,23.63
2023-03-04T03:09:12.734Z,24.42
2023-03-04T03:11:56.059Z,22.63
2023-03-04T03:14:39.482Z,23.95
2023-03-04T03:17:25.902Z,28.25
2023-03-04T03:20:09.966Z,25.60
2023-03-04T03:22:52.906Z,26.52
2023-03-04T03:25:35.806Z,27.20
2023-03-04T03:28:18.855Z,32.00
2023-03-04T03:31:01.754Z,26.75
2023-03-04T03:33:45.953Z,30.13
2023-03-04T03:36:29.003Z,27.50
2023-03-04T03:39:11.848Z,30.33
2023-03-04T03:41:54.678Z,28.33
2023-03-04T03:44:37.534Z,30.20
2023-03-04T03:47:20.396Z,29.75
2023-03-04T03:50:05.167Z,29.65
2023-03-04T03:52:47.976Z,26.80
2023-03-04T03:55:30.816Z,20.40
2023-03-04T03:58:14.346Z,21.25
2023-03-04T04:00:58.473Z,22.60
2023-03-04T04:03:41.569Z,19.27
2023-03-04T04:06:25.838Z,20.98
2023-03-04T04:09:08.758Z,26.38
2023-03-04T04:11:51.779Z,22.83
2023-03-04T04:14:34.936Z,28.20
2023-03-04T04:17:17.772Z,28.13
2023-03-04T04:20:00.729Z,25.45
2023-03-04T04:22:44.880Z,29.67
2023-03-04T04:25:27.752Z,31.25
2023-03-04T04:28:10.566Z,28.33
2023-03-04T04:30:53.509Z,30.67
2023-03-04T04:33:36.673Z,30.63
2023-03-04T04:36:19.514Z,25.20
2023-03-04T04:39:04.401Z,23.48
2023-03-04T04:41:48.144Z,24.25
2023-03-04T04:44:31.001Z,29.97
2023-03-04T04:47:13.869Z,31.35
2023-03-04T04:49:56.668Z,26.48
2023-03-04T04:52:39.506Z,30.88
2023-03-04T04:55:23.670Z,30.88
2023-03-04T04:58:07.117Z,33.15
2023-03-04T05:00:50.007Z,33.10
2023-03-04T05:03:33.441Z,30.73
2023-03-04T05:06:16.546Z,28.13
2023-03-04T05:08:59.494Z,29.02
2023-03-04T05:11:43.668Z,31.38
2023-03-04T05:14:26.511Z,30.33
2023-03-04T05:17:09.359Z,27.90
2023-03-04T05:19:52.161Z,29.17
2023-03-04T05:22:34.977Z,30.48
2023-03-04T05:25:17.915Z,27.73
2023-03-04T05:28:02.684Z,25.75
2023-03-04T05:30:46.272Z,21.58
2023-03-04T05:33:29.510Z,17.97
2023-03-04T05:36:12.336Z,13.40
2023-03-04T05:38:55.174Z,9.80
2023-03-04T05:41:38.090Z,13.32
2023-03-04T05:44:22.280Z,13.30
2023-03-04T05:47:05.096Z,10.30
2023-03-04T05:49:47.893Z,10.55
2023-03-04T05:52:30.906Z,8.18
2023-03-04T05:55:14.274Z,7.88
2023-03-04T05:57:57.277Z,7.95
2023-03-04T06:00:41.489Z,6.75
2023-03-04T06:03:24.453Z,7.82
2023-03-04T06:06:07.658Z,7.78
2023-03-04T06:08:50.481Z,5.93
2023-03-04T06:11:35.287Z,7.00
2023-03-04T06:14:19.207Z,7.47
2023-03-04T06:17:03.397Z,9.68
2023-03-04T06:19:46.200Z,11.02
2023-03-04T06:22:28.999Z,15.45
2023-03-04T06:25:11.825Z,19.67
2023-03-04T06:27:55.351Z,18.00
2023-03-04T06:30:38.219Z,15.40
2023-03-04T06:33:22.473Z,19.85
2023-03-04T06:36:05.688Z,18.60
2023-03-04T06:38:48.526Z,23.20
2023-03-04T06:41:31.334Z,24.27
2023-03-04T06:44:14.158Z,26.38
2023-03-04T06:46:57.000Z,39.53
2023-03-04T06:49:41.177Z,34.17
2023-03-04T06:52:24.076Z,32.08
2023-03-04T06:55:08.495Z,27.48
2023-03-04T06:57:51.328Z,23.42
2023-03-04T07:00:34.187Z,22.42
2023-03-04T07:03:17.033Z,25.17
2023-03-04T07:06:01.234Z,19.10
2023-03-04T07:08:44.412Z,20.13
2023-03-04T07:11:28.051Z,28.58
2023-03-04T07:14:11.394Z,25.80
2023-03-04T07:16:54.261Z,20.30
2023-03-04T07:19:37.115Z,24.80
2023-03-04T07:22:21.341Z,24.90
2023-03-04T07:25:04.370Z,27.02
2023-03-04T07:27:47.163Z,32.45
2023-03-04T07:30:30.003Z,23.15
2023-03-04T07:33:13.079Z,20.50
2023-03-04T07:36:00.749Z,18.17
2023-03-04T07:38:46.094Z,17.35
2023-03-04T07:41:29.908Z,12.77
2023-03-04T07:44:13.563Z,14.90
2023-03-04T07:46:56.363Z,12.37
2023-03-04T07:49:39.366Z,13.05
2023-03-04T07:52:22.136Z,9.75
2023-03-04T07:55:07.233Z,10.50
2023-03-04T07:57:50.029Z,8.23
2023-03-04T08:00:32.952Z,7.93
2023-03-04T08:03:15.750Z,8.05
2023-03-04T08:05:58.566Z,8.25
2023-03-04T08:08:41.800Z,7.75
2023-03-04T08:11:26.426Z,6.60
2023-03-04T08:16:52.188Z,3.88
2023-03-04T08:19:35.039Z,4.00
2023-03-04T08:22:17.925Z,4.63
2023-03-04T08:25:00.745Z,4.30
2023-03-04T08:27:45.053Z,3.67
2023-03-04T08:30:27.882Z,3.88
2023-03-04T08:33:11.629Z,4.03
2023-03-04T08:35:54.507Z,4.45
2023-03-04T08:38:37.837Z,3.72
2023-03-04T08:41:20.646Z,5.50
2023-03-04T08:44:05.449Z,3.00
2023-03-04T08:46:48.303Z,4.25
2023-03-04T08:49:31.119Z,3.50
2023-03-04T08:52:13.992Z,3.58
2023-03-04T08:54:56.877Z,4.20
2023-03-04T08:57:39.652Z,4.28
2023-03-04T09:00:24.055Z,6.18
2023-03-04T09:03:06.988Z,6.72
2023-03-04T09:05:50.136Z,6.35
2023-03-04T09:08:33.163Z,6.57
2023-03-04T09:11:16.797Z,6.78
2023-03-04T09:13:59.655Z,7.40
2023-03-04T09:16:43.804Z,7.45
2023-03-04T09:19:27.924Z,5.60
2023-03-04T09:22:10.738Z,6.25
2023-03-04T09:24:53.564Z,8.75
2023-03-04T09:27:36.398Z,7.65
2023-03-04T09:30:19.836Z,9.88
2023-03-04T09:33:04.243Z,12.32
2023-03-04T09:35:48.929Z,12.93
2023-03-04T09:38:31.776Z,9.75
2023-03-04T09:41:18.235Z,13.93
2023-03-04T09:44:04.875Z,15.57
2023-03-04T09:46:50.460Z,12.05
2023-03-04T09:49:35.349Z,9.38
2023-03-04T09:52:29.380Z,12.13
2023-03-04T09:55:21.459Z,10.60
2023-03-04T09:58:12.498Z,12.50
2023-03-04T10:00:59.190Z,10.80
2023-03-04T10:03:48.364Z,13.10
2023-03-04T10:06:33.503Z,12.45
2023-03-04T10:09:20.643Z,11.98
2023-03-04T10:12:07.590Z,10.52
2023-03-04T10:14:57.231Z,11.32
2023-03-04T10:17:44.234Z,9.80
2023-03-04T10:20:32.034Z,15.13
2023-03-04T10:23:20.564Z,12.43
2023-03-04T10:26:14.167Z,17.63
2023-03-04T10:28:56.979Z,12.70
2023-03-04T10:31:42.146Z,13.90
2023-03-04T10:34:25.369Z,9.15
2023-03-04T10:37:09.851Z,10.43
2023-03-04T10:39:54.134Z,12.07
2023-03-04T10:42:37.919Z,13.98
2023-03-04T10:45:22.992Z,15.17
2023-03-04T10:48:06.308Z,18.88
2023-03-04T10:50:49.348Z,16.02
2023-03-04T10:53:38.800Z,15.45
2023-03-04T10:56:35.245Z,14.25
2023-03-04T10:59:50.622Z,15.02
2023-03-04T11:02:34.997Z,13.52
2023-03-04T11:05:19.975Z,14.23
2023-03-04T11:08:02.837Z,15.70
2023-03-04T11:10:45.780Z,15.13
2023-03-04T11:13:31.334Z,15.20
2023-03-04T11:16:27.285Z,14.85
2023-03-04T11:19:17.741Z,12.60
2023-03-04T11:22:01.771Z,13.43
2023-03-04T11:24:45.227Z,13.30
2023-03-04T11:27:39.803Z,15.27
2023-03-04T11:30:42.140Z,13.32
2023-03-04T11:33:29.632Z,14.60
2023-03-04T11:36:30.269Z,16.08
2023-03-04T11:39:21.568Z,13.43
2023-03-04T11:42:12.460Z,13.95
2023-03-04T11:44:56.458Z,16.65
2023-03-04T11:48:01.359Z,16.48
2023-03-04T11:50:50.728Z,17.95
2023-03-04T11:53:41.516Z,16.42
2023-03-04T11:56:33.010Z,14.68
2023-03-04T11:59:43.262Z,16.85
2023-03-04T12:02:35.442Z,18.33
2023-03-04T12:05:30.512Z,18.40
2023-03-04T12:08:49.144Z,17.17
2023-03-04T12:11:43.686Z,16.83
2023-03-04T12:14:34.659Z,18.23
2023-03-04T12:17:37.749Z,14.77
2023-03-04T12:20:42.286Z,19.83
2023-03-04T12:23:41.819Z,17.20
2023-03-04T12:26:31.812Z,19.50
2023-03-04T12:29:20.268Z,17.58
2023-03-04T12:32:12.488Z,16.33
2023-03-04T12:35:16.121Z,20.13
2023-03-04T12:38:10.256Z,17.33
2023-03-04T12:40:59.226Z,19.23
2023-03-04T12:43:54.191Z,17.42
2023-03-04T12:49:36.297Z,19.10
2023-03-04T12:52:29.145Z,16.63
2023-03-04T12:55:17.200Z,17.75
2023-03-04T12:58:00.481Z,17.95
2023-03-04T13:00:53.710Z,16.13
2023-03-04T13:03:45.966Z,18.92
2023-03-04T13:06:36.384Z,16.30
2023-03-04T13:09:27.966Z,15.98
2023-03-04T13:12:20.950Z,13.57
2023-03-04T13:15:31.378Z,16.63
2023-03-04T13:18:32.767Z,17.17
2023-03-04T13:21:24.156Z,17.98
2023-03-04T13:24:36.675Z,18.38
2023-03-04T13:27:48.639Z,16.70
2023-03-04T13:30:42.811Z,16.88
2023-03-04T13:33:50.197Z,22.73
2023-03-04T13:36:59.120Z,19.83
2023-03-04T13:39:41.922Z,17.17
2023-03-04T13:42:42.695Z,17.75
2023-03-04T13:45:36.247Z,18.67
2023-03-04T13:48:31.118Z,15.20
2023-03-04T13:51:28.844Z,14.25
2023-03-04T13:54:17.667Z,20.20
2023-03-04T13:57:18.035Z,24.48
2023-03-04T14:00:00.874Z,15.07
2023-03-04T14:02:45.002Z,15.95
2023-03-04T14:05:27.845Z,22.42
2023-03-04T14:08:20.859Z,17.92
2023-03-04T14:11:03.845Z,17.58
2023-03-04T14:13:46.751Z,22.40
2023-03-04T14:16:30.432Z,16.73
2023-03-04T14:19:19.351Z,26.93
2023-03-04T14:22:02.614Z,19.73
2023-03-04T14:24:57.183Z,17.48
2023-03-04T14:27:40.028Z,21.38
2023-03-04T14:30:40.735Z,25.60
2023-03-04T14:33:27.494Z,20.67
2023-03-04T14:36:18.497Z,19.73
2023-03-04T14:39:03.546Z,22.60
2023-03-04T14:41:49.113Z,18.92
2023-03-04T14:44:37.928Z,19.35
2023-03-04T14:47:26.351Z,24.88
2023-03-04T14:50:15.206Z,28.38
2023-03-04T14:53:17.690Z,25.10
2023-03-04T14:56:01.700Z,22.05
2023-03-04T14:58:54.175Z,20.00
2023-03-04T15:01:38.890Z,19.63
2023-03-04T15:04:22.027Z,26.38
2023-03-04T15:07:05.012Z,20.50
2023-03-04T15:09:54.069Z,27.88
2023-03-04T15:12:38.556Z,23.98
2023-03-04T15:15:43.033Z,19.75
2023-03-04T15:18:27.907Z,27.98
2023-03-04T15:21:33.262Z,21.88
2023-03-04T15:24:16.157Z,21.83
2023-03-04T15:27:00.387Z,19.73
2023-03-04T15:29:43.210Z,20.20
2023-03-04T15:32:26.395Z,21.92
2023-03-04T15:35:13.831Z,22.02
2023-03-04T15:37:57.789Z,23.85
2023-03-04T15:40:45.464Z,24.70
2023-03-04T15:43:29.630Z,31.85
2023-03-04T15:46:13.124Z,25.38
2023-03-04T15:48:55.962Z,29.48
2023-03-04T15:51:38.960Z,31.42
2023-03-04T15:54:26.730Z,27.17
2023-03-04T15:57:19.863Z,22.38
2023-03-04T16:00:04.105Z,22.27
2023-03-04T16:02:54.262Z,23.73
2023-03-04T16:05:39.092Z,26.85
2023-03-04T16:08:25.062Z,31.67
2023-03-04T16:11:08.391Z,24.90
2023-03-04T16:13:51.171Z,24.80
2023-03-04T16:16:35.298Z,25.40
2023-03-04T16:19:18.183Z,23.02
2023-03-04T16:22:01.157Z,29.52
2023-03-04T16:24:44.230Z,36.05
2023-03-04T16:27:27.431Z,34.33
2023-03-04T16:30:15.402Z,30.80
2023-03-04T16:32:59.647Z,30.10
2023-03-04T16:35:43.056Z,25.02
2023-03-04T16:38:28.365Z,29.02
2023-03-04T16:41:13.723Z,26.05
2023-03-04T16:43:57.069Z,25.70
2023-03-04T16:46:39.972Z,23.70
2023-03-04T16:49:24.224Z,28.70
2023-03-04T16:52:08.691Z,23.17
2023-03-04T16:57:34.201Z,27.13
2023-03-04T17:00:19.306Z,28.13
2023-03-04T17:03:02.415Z,23.52
2023-03-04T17:05:47.779Z,26.17
2023-03-04T17:08:30.573Z,26.30
2023-03-04T17:11:14.411Z,23.92
2023-03-04T17:13:57.419Z,25.58
2023-03-04T17:16:40.213Z,18.40
2023-03-04T17:19:23.030Z,25.58
2023-03-04T17:22:07.169Z,20.83
2023-03-04T17:24:50.005Z,21.55
2023-03-04T17:27:33.062Z,16.70
2023-03-04T17:30:16.203Z,16.67
2023-03-04T17:32:59.734Z,16.67
2023-03-04T17:35:42.618Z,15.60
2023-03-04T17:38:26.859Z,20.40
2023-03-04T17:41:13.489Z,16.23
2023-03-04T17:43:57.024Z,19.90
2023-03-04T17:46:40.204Z,18.35
2023-03-04T17:49:23.029Z,16.67
2023-03-04T17:52:06.693Z,17.45
2023-03-04T17:54:50.970Z,13.97
2023-03-04T17:57:37.074Z,12.07
2023-03-04T18:00:20.868Z,19.10
2023-03-04T18:03:03.672Z,16.60
2023-03-04T18:05:46.501Z,18.88
2023-03-04T18:08:29.392Z,18.58
2023-03-04T18:11:13.633Z,18.02
2023-03-04T18:13:56.809Z,17.38
2023-03-04T18:16:39.902Z,19.10
2023-03-04T18:19:22.780Z,16.88
2023-03-04T18:22:05.626Z,20.13
2023-03-04T18:24:48.666Z,20.20
2023-03-04T18:27:32.842Z,18.00
2023-03-04T18:30:17.814Z,14.48
2023-03-04T18:33:02.140Z,16.05
2023-03-04T18:35:45.053Z,18.15
2023-03-04T18:38:28.266Z,15.25
2023-03-04T18:41:13.556Z,17.20
2023-03-04T18:43:57.777Z,12.77
2023-03-04T18:46:44.564Z,32.97
2023-03-04T18:49:27.418Z,18.48
2023-03-04T18:52:10.360Z,19.08
2023-03-04T18:54:53.143Z,26.33
2023-03-04T18:57:36.090Z,22.05
2023-03-04T19:00:22.359Z,19.05
2023-03-04T19:03:08.824Z,20.65
2023-03-04T19:05:51.640Z,22.35
2023-03-04T19:08:34.954Z,17.92
2023-03-04T19:11:17.869Z,26.52
2023-03-04T19:14:00.761Z,17.65
2023-03-04T19:16:45.069Z,18.15
2023-03-04T19:19:27.972Z,25.00
2023-03-04T19:22:10.823Z,30.25
2023-03-04T19:24:53.602Z,23.08
2023-03-04T19:27:36.553Z,22.98
2023-03-04T19:30:19.934Z,16.13
2023-03-04T19:33:04.767Z,13.38
2023-03-04T19:35:47.802Z,18.52
2023-03-04T19:38:31.760Z,23.50
2023-03-04T19:41:16.651Z,22.25
2023-03-04T19:43:59.483Z,20.33
2023-03-04T19:46:42.310Z,21.88
2023-03-04T19:49:26.506Z,17.25
2023-03-04T19:52:09.414Z,24.25
2023-03-04T19:54:52.454Z,17.10
2023-03-04T19:57:35.389Z,19.42
2023-03-04T20:00:19.087Z,18.73
2023-03-04T20:03:02.533Z,30.48
2023-03-04T20:05:46.753Z,17.38
2023-03-04T20:08:29.625Z,20.50
2023-03-04T20:11:14.061Z,17.65
2023-03-04T20:13:58.390Z,14.23
2023-03-04T20:16:41.303Z,15.43
2023-03-04T20:19:24.049Z,15.45
2023-03-04T20:22:08.772Z,14.90
2023-03-04T20:24:53.662Z,14.43
2023-03-04T20:27:36.786Z,16.77
2023-03-04T20:30:19.962Z,16.85
2023-03-04T20:33:02.781Z,21.85
2023-03-04T20:35:45.657Z,20.60
2023-03-04T20:38:30.000Z,59.10
2023-03-04T20:41:13.354Z,52.97
2023-03-04T20:43:56.266Z,93.90
2023-03-04T20:46:41.914Z,45.30
2023-03-04T20:49:27.431Z,35.25
2023-03-04T20:52:11.412Z,27.95
2023-03-04T20:54:55.614Z,20.35
2023-03-04T20:57:39.550Z,43.70
2023-03-04T21:00:22.982Z,27.13
2023-03-04T21:03:05.931Z,18.63
2023-03-04T21:05:48.765Z,22.48
2023-03-04T21:08:31.677Z,28.95
2023-03-04T21:11:17.559Z,22.77
2023-03-04T21:14:00.464Z,25.17
2023-03-04T21:16:43.773Z,19.83
2023-03-04T21:19:28.336Z,22.15
2023-03-04T21:24:56.859Z,19.15
2023-03-04T21:27:42.725Z,17.83
2023-03-04T21:30:25.540Z,20.38
2023-03-04T21:33:16.283Z,19.33
2023-03-04T21:35:59.240Z,20.73
2023-03-04T21:38:42.519Z,18.23
2023-03-04T21:41:25.750Z,18.50
2023-03-04T21:44:17.969Z,23.17
2023-03-04T21:47:11.053Z,25.10
2023-03-04T21:49:53.970Z,21.63
2023-03-04T21:52:36.782Z,21.85
2023-03-04T21:55:19.631Z,17.80
2023-03-04T21:58:02.526Z,21.77
2023-03-04T22:00:46.885Z,19.67
2023-03-04T22:03:29.764Z,27.98
2023-03-04T22:06:13.595Z,26.95
2023-03-04T22:08:57.502Z,19.00
2023-03-04T22:11:40.326Z,22.67
2023-03-04T22:14:23.150Z,21.25
2023-03-04T22:17:07.816Z,23.42
2023-03-04T22:19:50.686Z,26.23
2023-03-04T22:22:33.523Z,19.45
2023-03-04T22:25:16.476Z,23.15
2023-03-04T22:27:59.273Z,19.55
2023-03-04T22:30:42.100Z,21.25
2023-03-04T22:33:26.722Z,21.40
2023-03-04T22:36:09.689Z,21.85
2023-03-04T22:38:52.674Z,21.65
2023-03-04T22:41:35.850Z,19.30
2023-03-04T22:44:19.099Z,18.52
2023-03-04T22:47:02.015Z,19.83
2023-03-04T22:49:47.505Z,21.02
2023-03-04T22:52:30.305Z,17.67
2023-03-04T22:55:13.895Z,23.27
2023-03-04T22:57:56.681Z,21.73
2023-03-04T23:00:40.075Z,18.42
2023-03-04T23:03:22.924Z,21.15
2023-03-04T23:06:09.398Z,26.48
2023-03-04T23:08:53.242Z,28.08
2023-03-04T23:11:36.984Z,25.83
2023-03-04T23:14:19.852Z,21.80
2023-03-04T23:17:02.812Z,21.83
2023-03-04T23:19:45.613Z,28.23
2023-03-04T23:22:29.822Z,26.15
2023-03-04T23:25:13.186Z,26.20
2023-03-04T23:27:56.027Z,24.52
2023-03-04T23:30:39.068Z,24.20
2023-03-04T23:33:22.333Z,24.67
2023-03-04T23:36:05.605Z,21.83
2023-03-04T23:38:50.098Z,24.98
2023-03-04T23:44:17.230Z,20.92
2023-03-04T23:47:00.080Z,23.17
2023-03-04T23:49:42.892Z,24.23
2023-03-04T23:52:25.818Z,24.10
2023-03-04T23:55:14.182Z,25.23
2023-03-04T23:57:56.984Z,19.98
